sensor_id;sensor_type;location;lat;lon;timestamp;P1;durP1;ratioP1;P2;durP2;ratioP2
26989;SDS011;14537;47.788;11.858;2024-01-07T00:00:00;1.33;;;1.20;;
26989;SDS011;14537;47.788;11.858;2024-01-07T00:02:26;1.27;;;0.82;;
26989;SDS011;14537;47.788;11.858;2024-01-07T00:04:52;1.45;;;0.73;;
26989;SDS011;14537;47.788;11.858;2024-01-07T00:07:17;1.60;;;1.17;;
26989;SDS011;14537;47.788;11.858;2024-01-07T00:09:44;1.88;;;0.85;;
26989;SDS011;14537;47.788;11.858;2024-01-07T00:12:10;1.08;;;0.82;;
26989;SDS011;14537;47.788;11.858;2024-01-07T00:14:36;2.58;;;1.17;;
26989;SDS011;14537;47.788;11.858;2024-01-07T00:17:01;1.13;;;0.95;;
26989;SDS011;14537;47.788;11.858;2024-01-07T00:19:27;1.30;;;0.77;;
26989;SDS011;14537;47.788;11.858;2024-01-07T00:21:52;1.38;;;0.77;;
26989;SDS011;14537;47.788;11.858;2024-01-07T00:24:18;2.80;;;0.98;;
26989;SDS011;14537;47.788;11.858;2024-01-07T00:26:43;1.45;;;1.15;;
26989;SDS011;14537;47.788;11.858;2024-01-07T00:29:09;1.73;;;1.05;;
26989;SDS011;14537;47.788;11.858;2024-01-07T00:31:35;0.93;;;0.93;;
26989;SDS011;14537;47.788;11.858;2024-01-07T00:34:00;1.13;;;0.90;;
26989;SDS011;14537;47.788;11.858;2024-01-07T00:36:26;1.35;;;0.90;;
26989;SDS011;14537;47.788;11.858;2024-01-07T00:38:51;1.15;;;0.88;;
26989;SDS011;14537;47.788;11.858;2024-01-07T00:41:17;1.83;;;1.23;;
26989;SDS011;14537;47.788;11.858;2024-01-07T00:43:42;0.60;;;0.57;;
26989;SDS011;14537;47.788;11.858;2024-01-07T00:46:08;1.30;;;1.05;;
26989;SDS011;14537;47.788;11.858;2024-01-07T00:48:33;1.15;;;0.93;;
26989;SDS011;14537;47.788;11.858;2024-01-07T00:50:59;1.17;;;1.08;;
26989;SDS011;14537;47.788;11.858;2024-01-07T00:53:25;3.00;;;1.02;;
26989;SDS011;14537;47.788;11.858;2024-01-07T00:55:51;1.13;;;0.90;;
26989;SDS011;14537;47.788;11.858;2024-01-07T00:58:16;0.80;;;0.80;;
26989;SDS011;14537;47.788;11.858;2024-01-07T01:00:42;1.33;;;1.10;;
26989;SDS011;14537;47.788;11.858;2024-01-07T01:03:07;1.17;;;0.95;;
26989;SDS011;14537;47.788;11.858;2024-01-07T01:05:33;1.25;;;1.02;;
26989;SDS011;14537;47.788;11.858;2024-01-07T01:07:59;1.10;;;0.93;;
26989;SDS011;14537;47.788;11.858;2024-01-07T01:10:24;1.05;;;0.70;;
26989;SDS011;14537;47.788;11.858;2024-01-07T01:12:50;1.65;;;1.23;;
26989;SDS011;14537;47.788;11.858;2024-01-07T01:15:18;1.83;;;1.08;;
26989;SDS011;14537;47.788;11.858;2024-01-07T01:17:44;1.50;;;1.08;;
26989;SDS011;14537;47.788;11.858;2024-01-07T01:20:10;1.70;;;0.90;;
26989;SDS011;14537;47.788;11.858;2024-01-07T01:22:36;1.00;;;0.88;;
26989;SDS011;14537;47.788;11.858;2024-01-07T01:25:01;1.83;;;1.30;;
26989;SDS011;14537;47.788;11.858;2024-01-07T01:27:28;2.22;;;1.27;;
26989;SDS011;14537;47.788;11.858;2024-01-07T01:29:54;1.17;;;0.98;;
26989;SDS011;14537;47.788;11.858;2024-01-07T01:32:19;0.93;;;0.80;;
26989;SDS011;14537;47.788;11.858;2024-01-07T01:34:45;1.30;;;1.10;;
26989;SDS011;14537;47.788;11.858;2024-01-07T01:37:10;0.93;;;0.90;;
26989;SDS011;14537;47.788;11.858;2024-01-07T01:39:39;1.00;;;0.70;;
26989;SDS011;14537;47.788;11.858;2024-01-07T01:42:05;1.10;;;1.00;;
26989;SDS011;14537;47.788;11.858;2024-01-07T01:44:31;1.73;;;0.90;;
26989;SDS011;14537;47.788;11.858;2024-01-07T01:46:57;1.92;;;1.15;;
26989;SDS011;14537;47.788;11.858;2024-01-07T01:49:25;1.27;;;1.00;;
26989;SDS011;14537;47.788;11.858;2024-01-07T01:51:51;0.52;;;0.52;;
26989;SDS011;14537;47.788;11.858;2024-01-07T01:54:18;1.20;;;1.00;;
26989;SDS011;14537;47.788;11.858;2024-01-07T01:56:45;1.27;;;1.10;;
26989;SDS011;14537;47.788;11.858;2024-01-07T01:59:11;1.52;;;0.95;;
26989;SDS011;14537;47.788;11.858;2024-01-07T02:01:37;1.05;;;0.95;;
26989;SDS011;14537;47.788;11.858;2024-01-07T02:04:03;0.65;;;0.65;;
26989;SDS011;14537;47.788;11.858;2024-01-07T02:06:29;1.30;;;1.00;;
26989;SDS011;14537;47.788;11.858;2024-01-07T02:08:55;0.80;;;0.70;;
26989;SDS011;14537;47.788;11.858;2024-01-07T02:11:21;1.58;;;0.80;;
26989;SDS011;14537;47.788;11.858;2024-01-07T02:13:47;0.82;;;0.75;;
26989;SDS011;14537;47.788;11.858;2024-01-07T02:16:13;1.40;;;0.90;;
26989;SDS011;14537;47.788;11.858;2024-01-07T02:18:43;0.60;;;0.60;;
26989;SDS011;14537;47.788;11.858;2024-01-07T02:21:10;0.88;;;0.88;;
26989;SDS011;14537;47.788;11.858;2024-01-07T02:23:37;0.70;;;0.70;;
26989;SDS011;14537;47.788;11.858;2024-01-07T02:26:03;0.70;;;0.70;;
26989;SDS011;14537;47.788;11.858;2024-01-07T02:28:29;0.80;;;0.80;;
26989;SDS011;14537;47.788;11.858;2024-01-07T02:30:55;1.00;;;0.82;;
26989;SDS011;14537;47.788;11.858;2024-01-07T02:33:21;0.70;;;0.68;;
26989;SDS011;14537;47.788;11.858;2024-01-07T02:35:47;0.80;;;0.80;;
26989;SDS011;14537;47.788;11.858;2024-01-07T02:38:12;1.20;;;0.80;;
26989;SDS011;14537;47.788;11.858;2024-01-07T02:40:38;0.80;;;0.80;;
26989;SDS011;14537;47.788;11.858;2024-01-07T02:43:04;1.05;;;0.80;;
26989;SDS011;14537;47.788;11.858;2024-01-07T02:45:29;0.70;;;0.70;;
26989;SDS011;14537;47.788;11.858;2024-01-07T02:47:55;0.88;;;0.80;;
26989;SDS011;14537;47.788;11.858;2024-01-07T02:50:21;0.60;;;0.60;;
26989;SDS011;14537;47.788;11.858;2024-01-07T02:52:47;1.08;;;0.90;;
26989;SDS011;14537;47.788;11.858;2024-01-07T02:55:13;0.57;;;0.57;;
26989;SDS011;14537;47.788;11.858;2024-01-07T02:57:38;1.02;;;0.90;;
26989;SDS011;14537;47.788;11.858;2024-01-07T03:00:04;0.85;;;0.63;;
26989;SDS011;14537;47.788;11.858;2024-01-07T03:02:30;0.88;;;0.88;;
26989;SDS011;14537;47.788;11.858;2024-01-07T03:04:56;0.90;;;0.85;;
26989;SDS011;14537;47.788;11.858;2024-01-07T03:07:21;1.15;;;0.80;;
26989;SDS011;14537;47.788;11.858;2024-01-07T03:09:50;0.80;;;0.80;;
26989;SDS011;14537;47.788;11.858;2024-01-07T03:12:16;1.05;;;0.98;;
26989;SDS011;14537;47.788;11.858;2024-01-07T03:14:42;1.00;;;0.73;;
26989;SDS011;14537;47.788;11.858;2024-01-07T03:17:09;1.13;;;0.80;;
26989;SDS011;14537;47.788;11.858;2024-01-07T03:19:35;0.70;;;0.70;;
26989;SDS011;14537;47.788;11.858;2024-01-07T03:22:02;0.95;;;0.80;;
26989;SDS011;14537;47.788;11.858;2024-01-07T03:24:27;0.70;;;0.70;;
26989;SDS011;14537;47.788;11.858;2024-01-07T03:26:53;0.75;;;0.75;;
26989;SDS011;14537;47.788;11.858;2024-01-07T03:29:19;0.80;;;0.80;;
26989;SDS011;14537;47.788;11.858;2024-01-07T03:31:44;0.70;;;0.70;;
26989;SDS011;14537;47.788;11.858;2024-01-07T03:34:10;1.10;;;0.98;;
26989;SDS011;14537;47.788;11.858;2024-01-07T03:36:35;1.65;;;1.10;;
26989;SDS011;14537;47.788;11.858;2024-01-07T03:39:01;1.67;;;0.95;;
26989;SDS011;14537;47.788;11.858;2024-01-07T03:41:26;1.00;;;0.88;;
26989;SDS011;14537;47.788;11.858;2024-01-07T03:43:52;5.13;;;1.27;;
26989;SDS011;14537;47.788;11.858;2024-01-07T03:46:18;1.17;;;0.95;;
26989;SDS011;14537;47.788;11.858;2024-01-07T03:48:44;1.33;;;1.20;;
26989;SDS011;14537;47.788;11.858;2024-01-07T03:51:10;1.25;;;1.10;;
26989;SDS011;14537;47.788;11.858;2024-01-07T03:53:35;1.40;;;1.23;;
26989;SDS011;14537;47.788;11.858;2024-01-07T03:56:01;1.10;;;1.00;;
26989;SDS011;14537;47.788;11.858;2024-01-07T03:58:27;0.90;;;0.80;;
26989;SDS011;14537;47.788;11.858;2024-01-07T04:00:52;0.63;;;0.60;;
26989;SDS011;14537;47.788;11.858;2024-01-07T04:03:18;1.77;;;1.27;;
26989;SDS011;14537;47.788;11.858;2024-01-07T04:05:44;1.10;;;0.95;;
26989;SDS011;14537;47.788;11.858;2024-01-07T04:08:12;1.30;;;1.00;;
26989;SDS011;14537;47.788;11.858;2024-01-07T04:10:40;1.48;;;1.20;;
26989;SDS011;14537;47.788;11.858;2024-01-07T04:13:06;1.60;;;1.23;;
26989;SDS011;14537;47.788;11.858;2024-01-07T04:15:32;1.23;;;1.00;;
26989;SDS011;14537;47.788;11.858;2024-01-07T04:18:00;1.77;;;1.30;;
26989;SDS011;14537;47.788;11.858;2024-01-07T04:20:29;2.22;;;1.35;;
26989;SDS011;14537;47.788;11.858;2024-01-07T04:22:55;2.58;;;1.25;;
26989;SDS011;14537;47.788;11.858;2024-01-07T04:25:22;1.00;;;0.90;;
26989;SDS011;14537;47.788;11.858;2024-01-07T04:27:48;1.95;;;1.40;;
26989;SDS011;14537;47.788;11.858;2024-01-07T04:30:14;2.20;;;1.20;;
26989;SDS011;14537;47.788;11.858;2024-01-07T04:32:39;1.48;;;0.88;;
26989;SDS011;14537;47.788;11.858;2024-01-07T04:35:05;2.10;;;1.25;;
26989;SDS011;14537;47.788;11.858;2024-01-07T04:37:31;1.98;;;1.30;;
26989;SDS011;14537;47.788;11.858;2024-01-07T04:39:57;1.42;;;1.30;;
26989;SDS011;14537;47.788;11.858;2024-01-07T04:42:23;1.40;;;1.20;;
26989;SDS011;14537;47.788;11.858;2024-01-07T04:44:48;4.10;;;1.70;;
26989;SDS011;14537;47.788;11.858;2024-01-07T04:47:24;1.98;;;1.60;;
26989;SDS011;14537;47.788;11.858;2024-01-07T04:49:51;2.00;;;1.58;;
26989;SDS011;14537;47.788;11.858;2024-01-07T04:52:17;4.47;;;1.85;;
26989;SDS011;14537;47.788;11.858;2024-01-07T04:54:43;1.85;;;1.48;;
26989;SDS011;14537;47.788;11.858;2024-01-07T04:57:08;2.35;;;1.80;;
26989;SDS011;14537;47.788;11.858;2024-01-07T04:59:34;3.60;;;1.40;;
26989;SDS011;14537;47.788;11.858;2024-01-07T05:02:00;3.65;;;1.35;;
26989;SDS011;14537;47.788;11.858;2024-01-07T05:04:25;3.72;;;1.80;;
26989;SDS011;14537;47.788;11.858;2024-01-07T05:06:51;2.10;;;1.42;;
26989;SDS011;14537;47.788;11.858;2024-01-07T05:09:17;2.28;;;1.42;;
26989;SDS011;14537;47.788;11.858;2024-01-07T05:11:42;2.95;;;1.63;;
26989;SDS011;14537;47.788;11.858;2024-01-07T05:14:08;3.65;;;1.88;;
26989;SDS011;14537;47.788;11.858;2024-01-07T05:16:33;2.17;;;1.17;;
26989;SDS011;14537;47.788;11.858;2024-01-07T05:18:59;2.72;;;1.55;;
26989;SDS011;14537;47.788;11.858;2024-01-07T05:21:25;5.15;;;1.98;;
26989;SDS011;14537;47.788;11.858;2024-01-07T05:23:50;3.33;;;1.73;;
26989;SDS011;14537;47.788;11.858;2024-01-07T05:26:16;2.92;;;1.58;;
26989;SDS011;14537;47.788;11.858;2024-01-07T05:28:41;4.18;;;1.80;;
26989;SDS011;14537;47.788;11.858;2024-01-07T05:31:16;1.40;;;1.10;;
26989;SDS011;14537;47.788;11.858;2024-01-07T05:33:43;1.33;;;1.10;;
26989;SDS011;14537;47.788;11.858;2024-01-07T05:36:09;1.88;;;1.15;;
26989;SDS011;14537;47.788;11.858;2024-01-07T05:38:36;1.25;;;1.08;;
26989;SDS011;14537;47.788;11.858;2024-01-07T05:41:01;1.50;;;1.23;;
26989;SDS011;14537;47.788;11.858;2024-01-07T05:43:27;2.75;;;1.67;;
26989;SDS011;14537;47.788;11.858;2024-01-07T05:45:52;2.25;;;1.55;;
26989;SDS011;14537;47.788;11.858;2024-01-07T05:48:20;3.38;;;1.83;;
26989;SDS011;14537;47.788;11.858;2024-01-07T05:50:46;3.95;;;1.55;;
26989;SDS011;14537;47.788;11.858;2024-01-07T05:53:12;2.85;;;1.50;;
26989;SDS011;14537;47.788;11.858;2024-01-07T05:55:38;2.22;;;1.33;;
26989;SDS011;14537;47.788;11.858;2024-01-07T05:58:04;3.47;;;1.38;;
26989;SDS011;14537;47.788;11.858;2024-01-07T06:00:30;2.15;;;1.38;;
26989;SDS011;14537;47.788;11.858;2024-01-07T06:02:55;1.92;;;1.38;;
26989;SDS011;14537;47.788;11.858;2024-01-07T06:05:21;2.58;;;1.60;;
26989;SDS011;14537;47.788;11.858;2024-01-07T06:07:47;2.63;;;1.98;;
26989;SDS011;14537;47.788;11.858;2024-01-07T06:10:12;1.88;;;1.40;;
26989;SDS011;14537;47.788;11.858;2024-01-07T06:12:38;2.33;;;1.60;;
26989;SDS011;14537;47.788;11.858;2024-01-07T06:15:04;1.40;;;1.30;;
26989;SDS011;14537;47.788;11.858;2024-01-07T06:17:30;2.78;;;1.67;;
26989;SDS011;14537;47.788;11.858;2024-01-07T06:19:56;2.90;;;1.52;;
26989;SDS011;14537;47.788;11.858;2024-01-07T06:22:21;2.35;;;1.67;;
26989;SDS011;14537;47.788;11.858;2024-01-07T06:24:47;5.10;;;1.80;;
26989;SDS011;14537;47.788;11.858;2024-01-07T06:27:13;2.88;;;1.65;;
26989;SDS011;14537;47.788;11.858;2024-01-07T06:29:38;3.47;;;1.60;;
26989;SDS011;14537;47.788;11.858;2024-01-07T06:32:04;3.40;;;2.00;;
26989;SDS011;14537;47.788;11.858;2024-01-07T06:34:30;3.38;;;1.58;;
26989;SDS011;14537;47.788;11.858;2024-01-07T06:36:55;2.15;;;1.15;;
26989;SDS011;14537;47.788;11.858;2024-01-07T06:39:21;1.60;;;1.33;;
26989;SDS011;14537;47.788;11.858;2024-01-07T06:41:47;2.85;;;1.48;;
26989;SDS011;14537;47.788;11.858;2024-01-07T06:44:12;3.00;;;1.80;;
26989;SDS011;14537;47.788;11.858;2024-01-07T06:46:38;2.70;;;1.88;;
26989;SDS011;14537;47.788;11.858;2024-01-07T06:49:04;6.70;;;1.40;;
26989;SDS011;14537;47.788;11.858;2024-01-07T06:51:29;1.98;;;1.58;;
26989;SDS011;14537;47.788;11.858;2024-01-07T06:53:55;2.05;;;1.48;;
26989;SDS011;14537;47.788;11.858;2024-01-07T06:56:20;1.65;;;1.38;;
26989;SDS011;14537;47.788;11.858;2024-01-07T06:58:46;4.43;;;1.73;;
26989;SDS011;14537;47.788;11.858;2024-01-07T07:01:12;4.63;;;2.42;;
26989;SDS011;14537;47.788;11.858;2024-01-07T07:03:39;5.13;;;1.50;;
26989;SDS011;14537;47.788;11.858;2024-01-07T07:06:06;2.42;;;1.42;;
26989;SDS011;14537;47.788;11.858;2024-01-07T07:08:32;2.30;;;1.58;;
26989;SDS011;14537;47.788;11.858;2024-01-07T07:10:57;5.13;;;1.70;;
26989;SDS011;14537;47.788;11.858;2024-01-07T07:13:23;5.50;;;3.63;;
26989;SDS011;14537;47.788;11.858;2024-01-07T07:15:48;2.08;;;1.52;;
26989;SDS011;14537;47.788;11.858;2024-01-07T07:18:14;4.18;;;2.75;;
26989;SDS011;14537;47.788;11.858;2024-01-07T07:20:39;4.47;;;2.17;;
26989;SDS011;14537;47.788;11.858;2024-01-07T07:23:05;4.22;;;2.67;;
26989;SDS011;14537;47.788;11.858;2024-01-07T07:25:30;4.20;;;2.63;;
26989;SDS011;14537;47.788;11.858;2024-01-07T07:27:56;5.15;;;2.47;;
26989;SDS011;14537;47.788;11.858;2024-01-07T07:30:22;1.95;;;1.10;;
26989;SDS011;14537;47.788;11.858;2024-01-07T07:32:47;1.33;;;1.23;;
26989;SDS011;14537;47.788;11.858;2024-01-07T07:35:13;3.10;;;2.05;;
26989;SDS011;14537;47.788;11.858;2024-01-07T07:37:38;3.28;;;1.38;;
26989;SDS011;14537;47.788;11.858;2024-01-07T07:40:04;5.63;;;2.33;;
26989;SDS011;14537;47.788;11.858;2024-01-07T07:42:30;3.13;;;1.52;;
26989;SDS011;14537;47.788;11.858;2024-01-07T07:44:56;1.20;;;0.80;;
26989;SDS011;14537;47.788;11.858;2024-01-07T07:47:21;1.35;;;1.20;;
26989;SDS011;14537;47.788;11.858;2024-01-07T07:49:47;10.63;;;5.47;;
26989;SDS011;14537;47.788;11.858;2024-01-07T07:52:15;16.58;;;8.23;;
26989;SDS011;14537;47.788;11.858;2024-01-07T07:54:41;17.10;;;8.88;;
26989;SDS011;14537;47.788;11.858;2024-01-07T07:57:06;4.68;;;2.88;;
26989;SDS011;14537;47.788;11.858;2024-01-07T07:59:32;1.92;;;1.58;;
26989;SDS011;14537;47.788;11.858;2024-01-07T08:01:57;3.10;;;2.72;;
26989;SDS011;14537;47.788;11.858;2024-01-07T08:04:24;3.08;;;1.92;;
26989;SDS011;14537;47.788;11.858;2024-01-07T08:06:51;2.33;;;1.60;;
26989;SDS011;14537;47.788;11.858;2024-01-07T08:09:17;1.75;;;1.20;;
26989;SDS011;14537;47.788;11.858;2024-01-07T08:11:43;2.33;;;1.48;;
26989;SDS011;14537;47.788;11.858;2024-01-07T08:14:08;0.98;;;0.93;;
26989;SDS011;14537;47.788;11.858;2024-01-07T08:16:34;1.65;;;1.50;;
26989;SDS011;14537;47.788;11.858;2024-01-07T08:18:59;2.83;;;1.38;;
26989;SDS011;14537;47.788;11.858;2024-01-07T08:21:25;0.95;;;0.85;;
26989;SDS011;14537;47.788;11.858;2024-01-07T08:23:51;1.85;;;1.40;;
26989;SDS011;14537;47.788;11.858;2024-01-07T08:26:20;1.13;;;1.02;;
26989;SDS011;14537;47.788;11.858;2024-01-07T08:28:46;1.90;;;1.50;;
26989;SDS011;14537;47.788;11.858;2024-01-07T08:31:12;1.58;;;1.33;;
26989;SDS011;14537;47.788;11.858;2024-01-07T08:33:38;3.33;;;2.40;;
26989;SDS011;14537;47.788;11.858;2024-01-07T08:36:03;2.85;;;1.73;;
26989;SDS011;14537;47.788;11.858;2024-01-07T08:38:29;6.43;;;2.47;;
26989;SDS011;14537;47.788;11.858;2024-01-07T08:40:55;2.00;;;1.50;;
26989;SDS011;14537;47.788;11.858;2024-01-07T08:43:21;4.70;;;2.65;;
26989;SDS011;14537;47.788;11.858;2024-01-07T08:45:56;1.26;;;1.14;;
26989;SDS011;14537;47.788;11.858;2024-01-07T08:48:22;1.05;;;0.90;;
26989;SDS011;14537;47.788;11.858;2024-01-07T08:50:47;2.47;;;1.58;;
26989;SDS011;14537;47.788;11.858;2024-01-07T08:53:15;2.97;;;1.77;;
26989;SDS011;14537;47.788;11.858;2024-01-07T08:55:40;2.45;;;1.70;;
26989;SDS011;14537;47.788;11.858;2024-01-07T08:58:06;1.80;;;1.35;;
26989;SDS011;14537;47.788;11.858;2024-01-07T09:00:31;2.58;;;1.33;;
26989;SDS011;14537;47.788;11.858;2024-01-07T09:02:57;3.00;;;1.40;;
26989;SDS011;14537;47.788;11.858;2024-01-07T09:05:23;4.45;;;2.20;;
26989;SDS011;14537;47.788;11.858;2024-01-07T09:07:51;3.58;;;1.73;;
26989;SDS011;14537;47.788;11.858;2024-01-07T09:10:16;4.10;;;2.58;;
26989;SDS011;14537;47.788;11.858;2024-01-07T09:12:43;3.92;;;1.92;;
26989;SDS011;14537;47.788;11.858;2024-01-07T09:15:09;2.45;;;1.60;;
26989;SDS011;14537;47.788;11.858;2024-01-07T09:17:38;1.30;;;1.20;;
26989;SDS011;14537;47.788;11.858;2024-01-07T09:20:04;2.88;;;1.35;;
26989;SDS011;14537;47.788;11.858;2024-01-07T09:22:32;1.73;;;1.27;;
26989;SDS011;14537;47.788;11.858;2024-01-07T09:24:59;2.22;;;1.45;;
26989;SDS011;14537;47.788;11.858;2024-01-07T09:27:26;2.78;;;1.33;;
26989;SDS011;14537;47.788;11.858;2024-01-07T09:29:51;1.77;;;1.40;;
26989;SDS011;14537;47.788;11.858;2024-01-07T09:32:17;2.28;;;1.33;;
26989;SDS011;14537;47.788;11.858;2024-01-07T09:34:42;5.03;;;2.60;;
26989;SDS011;14537;47.788;11.858;2024-01-07T09:37:08;3.75;;;2.58;;
26989;SDS011;14537;47.788;11.858;2024-01-07T09:39:38;2.85;;;1.65;;
26989;SDS011;14537;47.788;11.858;2024-01-07T09:42:05;4.95;;;2.85;;
26989;SDS011;14537;47.788;11.858;2024-01-07T09:44:37;4.68;;;2.72;;
26989;SDS011;14537;47.788;11.858;2024-01-07T09:47:03;5.53;;;1.98;;
26989;SDS011;14537;47.788;11.858;2024-01-07T09:49:30;12.00;;;3.88;;
26989;SDS011;14537;47.788;11.858;2024-01-07T09:51:58;2.75;;;1.98;;
26989;SDS011;14537;47.788;11.858;2024-01-07T09:54:27;2.70;;;1.73;;
26989;SDS011;14537;47.788;11.858;2024-01-07T09:57:03;2.05;;;1.40;;
26989;SDS011;14537;47.788;11.858;2024-01-07T09:59:31;1.92;;;1.38;;
26989;SDS011;14537;47.788;11.858;2024-01-07T10:01:57;1.92;;;1.55;;
26989;SDS011;14537;47.788;11.858;2024-01-07T10:04:23;4.30;;;2.28;;
26989;SDS011;14537;47.788;11.858;2024-01-07T10:06:49;5.15;;;2.35;;
26989;SDS011;14537;47.788;11.858;2024-01-07T10:09:17;5.25;;;2.00;;
26989;SDS011;14537;47.788;11.858;2024-01-07T10:11:43;2.42;;;1.50;;
26989;SDS011;14537;47.788;11.858;2024-01-07T10:14:09;10.32;;;2.70;;
26989;SDS011;14537;47.788;11.858;2024-01-07T10:16:35;2.22;;;1.48;;
26989;SDS011;14537;47.788;11.858;2024-01-07T10:19:01;6.53;;;1.88;;
26989;SDS011;14537;47.788;11.858;2024-01-07T10:21:26;7.20;;;2.50;;
26989;SDS011;14537;47.788;11.858;2024-01-07T10:24:08;2.15;;;1.23;;
26989;SDS011;14537;47.788;11.858;2024-01-07T10:26:37;2.33;;;1.35;;
26989;SDS011;14537;47.788;11.858;2024-01-07T10:29:03;6.00;;;2.72;;
26989;SDS011;14537;47.788;11.858;2024-01-07T10:31:29;3.17;;;2.33;;
26989;SDS011;14537;47.788;11.858;2024-01-07T10:33:56;7.00;;;3.75;;
26989;SDS011;14537;47.788;11.858;2024-01-07T10:36:22;5.88;;;2.85;;
26989;SDS011;14537;47.788;11.858;2024-01-07T10:38:49;7.88;;;3.85;;
26989;SDS011;14537;47.788;11.858;2024-01-07T10:41:17;2.55;;;1.75;;
26989;SDS011;14537;47.788;11.858;2024-01-07T10:43:45;3.63;;;2.08;;
26989;SDS011;14537;47.788;11.858;2024-01-07T10:46:12;6.82;;;2.25;;
26989;SDS011;14537;47.788;11.858;2024-01-07T10:48:41;3.65;;;1.58;;
26989;SDS011;14537;47.788;11.858;2024-01-07T10:51:11;4.72;;;2.58;;
26989;SDS011;14537;47.788;11.858;2024-01-07T10:53:39;2.35;;;1.50;;
26989;SDS011;14537;47.788;11.858;2024-01-07T10:56:09;2.78;;;1.08;;
26989;SDS011;14537;47.788;11.858;2024-01-07T10:58:37;2.72;;;1.58;;
26989;SDS011;14537;47.788;11.858;2024-01-07T11:01:03;3.55;;;2.30;;
26989;SDS011;14537;47.788;11.858;2024-01-07T11:06:06;3.20;;;1.83;;
26989;SDS011;14537;47.788;11.858;2024-01-07T11:08:54;2.97;;;1.65;;
26989;SDS011;14537;47.788;11.858;2024-01-07T11:11:27;3.42;;;1.67;;
26989;SDS011;14537;47.788;11.858;2024-01-07T11:14:03;5.82;;;2.03;;
26989;SDS011;14537;47.788;11.858;2024-01-07T11:19:04;3.58;;;1.90;;
26989;SDS011;14537;47.788;11.858;2024-01-07T11:21:30;4.10;;;2.20;;
26989;SDS011;14537;47.788;11.858;2024-01-07T11:23:55;1.85;;;1.23;;
26989;SDS011;14537;47.788;11.858;2024-01-07T11:26:21;1.35;;;1.08;;
26989;SDS011;14537;47.788;11.858;2024-01-07T11:28:54;1.90;;;1.20;;
26989;SDS011;14537;47.788;11.858;2024-01-07T11:31:24;2.05;;;1.35;;
26989;SDS011;14537;47.788;11.858;2024-01-07T11:34:07;1.73;;;0.93;;
26989;SDS011;14537;47.788;11.858;2024-01-07T11:36:36;2.05;;;1.10;;
26989;SDS011;14537;47.788;11.858;2024-01-07T11:39:03;2.42;;;1.55;;
26989;SDS011;14537;47.788;11.858;2024-01-07T11:41:31;2.10;;;1.38;;
26989;SDS011;14537;47.788;11.858;2024-01-07T11:43:59;1.30;;;1.17;;
26989;SDS011;14537;47.788;11.858;2024-01-07T11:46:28;1.90;;;1.30;;
26989;SDS011;14537;47.788;11.858;2024-01-07T11:48:57;2.22;;;1.55;;
26989;SDS011;14537;47.788;11.858;2024-01-07T11:51:25;2.17;;;1.63;;
26989;SDS011;14537;47.788;11.858;2024-01-07T11:53:55;5.35;;;2.88;;
26989;SDS011;14537;47.788;11.858;2024-01-07T11:56:25;2.60;;;1.65;;
26989;SDS011;14537;47.788;11.858;2024-01-07T11:58:53;2.60;;;1.33;;
26989;SDS011;14537;47.788;11.858;2024-01-07T12:01:21;2.70;;;1.52;;
26989;SDS011;14537;47.788;11.858;2024-01-07T12:03:46;3.70;;;2.20;;
26989;SDS011;14537;47.788;11.858;2024-01-07T12:06:12;17.55;;;7.20;;
26989;SDS011;14537;47.788;11.858;2024-01-07T12:08:44;5.93;;;2.50;;
26989;SDS011;14537;47.788;11.858;2024-01-07T12:11:11;2.75;;;2.22;;
26989;SDS011;14537;47.788;11.858;2024-01-07T12:13:38;2.88;;;1.73;;
26989;SDS011;14537;47.788;11.858;2024-01-07T12:16:07;2.88;;;1.48;;
26989;SDS011;14537;47.788;11.858;2024-01-07T12:18:37;2.72;;;1.85;;
26989;SDS011;14537;47.788;11.858;2024-01-07T12:21:05;2.70;;;1.60;;
26989;SDS011;14537;47.788;11.858;2024-01-07T12:23:34;2.15;;;1.42;;
26989;SDS011;14537;47.788;11.858;2024-01-07T12:26:10;1.88;;;1.50;;
26989;SDS011;14537;47.788;11.858;2024-01-07T12:28:36;4.45;;;1.75;;
26989;SDS011;14537;47.788;11.858;2024-01-07T12:31:02;1.80;;;1.50;;
26989;SDS011;14537;47.788;11.858;2024-01-07T12:33:29;2.28;;;1.52;;
26989;SDS011;14537;47.788;11.858;2024-01-07T12:35:56;2.25;;;1.27;;
26989;SDS011;14537;47.788;11.858;2024-01-07T12:38:25;2.53;;;1.60;;
26989;SDS011;14537;47.788;11.858;2024-01-07T12:40:54;2.65;;;1.33;;
26989;SDS011;14537;47.788;11.858;2024-01-07T12:43:20;1.95;;;1.40;;
26989;SDS011;14537;47.788;11.858;2024-01-07T12:45:47;2.15;;;1.45;;
26989;SDS011;14537;47.788;11.858;2024-01-07T12:48:13;2.58;;;1.58;;
26989;SDS011;14537;47.788;11.858;2024-01-07T12:50:39;3.13;;;1.77;;
26989;SDS011;14537;47.788;11.858;2024-01-07T12:53:05;3.13;;;1.60;;
26989;SDS011;14537;47.788;11.858;2024-01-07T12:55:30;3.03;;;1.52;;
26989;SDS011;14537;47.788;11.858;2024-01-07T12:57:56;2.35;;;1.40;;
26989;SDS011;14537;47.788;11.858;2024-01-07T13:00:23;8.38;;;1.58;;
26989;SDS011;14537;47.788;11.858;2024-01-07T13:02:50;2.10;;;1.40;;
26989;SDS011;14537;47.788;11.858;2024-01-07T13:05:16;3.00;;;1.45;;
26989;SDS011;14537;47.788;11.858;2024-01-07T13:07:42;3.10;;;2.10;;
26989;SDS011;14537;47.788;11.858;2024-01-07T13:10:07;2.75;;;1.80;;
26989;SDS011;14537;47.788;11.858;2024-01-07T13:12:34;3.25;;;2.33;;
26989;SDS011;14537;47.788;11.858;2024-01-07T13:15:00;5.65;;;2.53;;
26989;SDS011;14537;47.788;11.858;2024-01-07T13:17:26;3.75;;;2.10;;
26989;SDS011;14537;47.788;11.858;2024-01-07T13:19:51;4.38;;;1.98;;
26989;SDS011;14537;47.788;11.858;2024-01-07T13:22:18;3.88;;;1.95;;
26989;SDS011;14537;47.788;11.858;2024-01-07T13:24:43;4.18;;;2.25;;
26989;SDS011;14537;47.788;11.858;2024-01-07T13:27:09;3.63;;;2.30;;
26989;SDS011;14537;47.788;11.858;2024-01-07T13:29:34;3.42;;;2.05;;
26989;SDS011;14537;47.788;11.858;2024-01-07T13:32:00;2.78;;;1.67;;
26989;SDS011;14537;47.788;11.858;2024-01-07T13:34:25;2.58;;;1.92;;
26989;SDS011;14537;47.788;11.858;2024-01-07T13:36:52;4.25;;;2.50;;
26989;SDS011;14537;47.788;11.858;2024-01-07T13:39:17;3.30;;;2.25;;
26989;SDS011;14537;47.788;11.858;2024-01-07T13:41:43;4.28;;;2.20;;
26989;SDS011;14537;47.788;11.858;2024-01-07T13:44:09;4.68;;;1.98;;
26989;SDS011;14537;47.788;11.858;2024-01-07T13:46:42;2.85;;;1.85;;
26989;SDS011;14537;47.788;11.858;2024-01-07T13:49:09;3.10;;;1.80;;
26989;SDS011;14537;47.788;11.858;2024-01-07T13:51:35;3.13;;;2.10;;
26989;SDS011;14537;47.788;11.858;2024-01-07T13:54:02;3.70;;;1.52;;
26989;SDS011;14537;47.788;11.858;2024-01-07T13:56:28;2.58;;;1.63;;
26989;SDS011;14537;47.788;11.858;2024-01-07T13:58:54;3.67;;;1.90;;
26989;SDS011;14537;47.788;11.858;2024-01-07T14:01:21;4.88;;;2.13;;
26989;SDS011;14537;47.788;11.858;2024-01-07T14:03:46;7.30;;;2.42;;
26989;SDS011;14537;47.788;11.858;2024-01-07T14:06:12;3.40;;;2.00;;
26989;SDS011;14537;47.788;11.858;2024-01-07T14:08:38;3.88;;;1.95;;
26989;SDS011;14537;47.788;11.858;2024-01-07T14:11:03;3.33;;;2.17;;
26989;SDS011;14537;47.788;11.858;2024-01-07T14:13:32;2.08;;;1.77;;
26989;SDS011;14537;47.788;11.858;2024-01-07T14:15:57;2.17;;;1.52;;
26989;SDS011;14537;47.788;11.858;2024-01-07T14:18:23;2.42;;;1.75;;
26989;SDS011;14537;47.788;11.858;2024-01-07T14:20:49;2.40;;;1.55;;
26989;SDS011;14537;47.788;11.858;2024-01-07T14:23:14;3.00;;;1.77;;
26989;SDS011;14537;47.788;11.858;2024-01-07T14:25:40;2.70;;;1.60;;
26989;SDS011;14537;47.788;11.858;2024-01-07T14:28:06;2.80;;;1.67;;
26989;SDS011;14537;47.788;11.858;2024-01-07T14:30:32;3.75;;;2.13;;
26989;SDS011;14537;47.788;11.858;2024-01-07T14:32:58;2.30;;;1.60;;